createdAt,value
2022-08-07T00:00:35.856Z,18.20
2022-08-07T00:03:07.109Z,18.10
2022-08-07T00:05:37.047Z,18.10
2022-08-07T00:08:04.971Z,18.10
2022-08-07T00:10:31.922Z,18.00
2022-08-07T00:13:02.178Z,17.90
2022-08-07T00:15:38.501Z,17.90
2022-08-07T00:18:18.694Z,17.90
2022-08-07T00:20:47.724Z,17.90
2022-08-07T00:23:14.899Z,17.80
2022-08-07T00:25:51.722Z,17.80
2022-08-07T00:28:31.774Z,17.70
2022-08-07T00:31:12.416Z,17.80
2022-08-07T00:33:39.955Z,17.80
2022-08-07T00:36:07.778Z,17.70
2022-08-07T00:38:36.721Z,17.70
2022-08-07T00:41:09.986Z,17.70
2022-08-07T00:43:59.021Z,17.70
2022-08-07T00:46:28.439Z,17.80
2022-08-07T00:48:55.453Z,17.80
2022-08-07T00:51:22.335Z,17.80
2022-08-07T00:53:55.974Z,17.80
2022-08-07T00:56:23.586Z,17.80
2022-08-07T00:58:57.491Z,17.70
2022-08-07T01:01:24.669Z,17.70
2022-08-07T01:03:57.126Z,17.70
2022-08-07T01:06:28.801Z,17.70
2022-08-07T01:08:58.305Z,17.60
2022-08-07T01:12:09.828Z,17.60
2022-08-07T01:14:12.774Z,17.60
2022-08-07T01:16:47.335Z,17.60
2022-08-07T01:19:18.865Z,17.60
2022-08-07T01:21:50.197Z,17.50
2022-08-07T01:24:22.293Z,17.30
2022-08-07T01:26:52.171Z,17.20
2022-08-07T01:29:23.248Z,17.10
2022-08-07T01:31:52.379Z,17.10
2022-08-07T01:34:19.713Z,17.10
2022-08-07T01:36:57.997Z,17.00
2022-08-07T01:39:40.534Z,17.00
2022-08-07T01:42:38.433Z,17.00
2022-08-07T01:45:09.822Z,17.00
2022-08-07T01:48:18.568Z,16.90
2022-08-07T01:50:31.162Z,16.90
2022-08-07T01:52:59.190Z,16.90
2022-08-07T01:55:28.700Z,16.90
2022-08-07T01:58:06.338Z,16.90
2022-08-07T02:00:51.614Z,16.80
2022-08-07T02:03:26.576Z,16.80
2022-08-07T02:06:31.577Z,16.80
2022-08-07T02:09:06.288Z,16.70
2022-08-07T02:12:03.747Z,16.70
2022-08-07T02:14:35.879Z,16.60
2022-08-07T02:17:03.994Z,16.60
2022-08-07T02:20:07.846Z,16.60
2022-08-07T02:22:20.752Z,16.60
2022-08-07T02:24:53.310Z,16.50
2022-08-07T02:27:21.925Z,16.50
2022-08-07T02:29:54.508Z,16.50
2022-08-07T02:32:29.833Z,16.50
2022-08-07T02:34:57.928Z,16.40
2022-08-07T02:37:26.974Z,16.40
2022-08-07T02:40:01.998Z,16.40
2022-08-07T02:42:41.595Z,16.40
2022-08-07T02:45:58.269Z,16.30
2022-08-07T02:47:59.138Z,16.20
2022-08-07T02:50:30.836Z,16.20
2022-08-07T02:53:03.609Z,16.10
2022-08-07T02:56:03.179Z,16.10
2022-08-07T02:58:22.899Z,16.10
2022-08-07T03:00:57.389Z,16.00
2022-08-07T03:03:29.532Z,16.00
2022-08-07T03:06:16.337Z,16.00
2022-08-07T03:08:44.464Z,16.00
2022-08-07T03:11:11.356Z,15.90
2022-08-07T03:13:49.971Z,15.90
2022-08-07T03:16:23.058Z,15.90
2022-08-07T03:18:56.417Z,15.90
2022-08-07T03:21:24.485Z,15.80
2022-08-07T03:24:17.989Z,15.80
2022-08-07T03:26:57.985Z,15.80
2022-08-07T03:29:37.885Z,15.80
2022-08-07T03:32:12.879Z,15.70
2022-08-07T03:34:47.155Z,15.70
2022-08-07T03:37:32.850Z,15.70
2022-08-07T03:40:16.451Z,15.70
2022-08-07T03:42:44.063Z,15.60
2022-08-07T03:45:12.767Z,15.60
2022-08-07T03:48:01.422Z,15.50
2022-08-07T03:50:29.078Z,15.50
2022-08-07T03:53:00.373Z,15.40
2022-08-07T03:55:57.978Z,15.40
2022-08-07T03:59:07.238Z,15.30
2022-08-07T04:01:07.631Z,15.30
2022-08-07T04:03:54.039Z,15.20
2022-08-07T04:06:37.660Z,15.10
2022-08-07T04:09:15.700Z,15.00
2022-08-07T04:12:25.747Z,14.90
2022-08-07T04:14:38.026Z,14.90
2022-08-07T04:17:19.810Z,14.90
2022-08-07T04:19:52.093Z,14.70
2022-08-07T04:22:28.933Z,14.70
2022-08-07T04:25:01.705Z,14.80
2022-08-07T04:27:36.161Z,14.80
2022-08-07T04:30:21.439Z,14.70
2022-08-07T04:33:08.289Z,14.70
2022-08-07T04:35:38.570Z,14.60
2022-08-07T04:38:11.433Z,14.60
2022-08-07T04:40:44.068Z,14.70
2022-08-07T04:44:13.118Z,14.70
2022-08-07T04:46:59.502Z,14.70
2022-08-07T04:50:03.495Z,14.70
2022-08-07T04:52:46.938Z,14.70
2022-08-07T04:58:16.700Z,14.70
2022-08-07T04:58:35.001Z,14.70
2022-08-07T05:01:20.907Z,14.70
2022-08-07T05:04:07.556Z,14.70
2022-08-07T05:06:58.343Z,14.70
2022-08-07T05:09:58.766Z,14.70
2022-08-07T05:12:53.636Z,14.60
2022-08-07T05:15:26.803Z,14.50
2022-08-07T05:18:08.590Z,14.50
2022-08-07T05:20:46.885Z,14.50
2022-08-07T05:23:29.064Z,14.50
2022-08-07T05:26:15.225Z,14.60
2022-08-07T05:28:51.475Z,14.70
2022-08-07T05:31:24.105Z,14.70
2022-08-07T05:34:05.420Z,14.70
2022-08-07T05:36:39.130Z,14.80
2022-08-07T05:40:17.166Z,14.90
2022-08-07T05:42:06.375Z,15.00
2022-08-07T05:44:41.535Z,15.10
2022-08-07T05:47:38.608Z,15.20
2022-08-07T05:50:01.702Z,15.30
2022-08-07T05:52:32.722Z,15.40
2022-08-07T05:55:07.036Z,15.50
2022-08-07T05:57:41.955Z,15.60
2022-08-07T06:00:16.532Z,15.60
2022-08-07T06:02:53.217Z,15.80
2022-08-07T06:05:28.221Z,15.90
2022-08-07T06:08:14.612Z,15.90
2022-08-07T06:10:51.217Z,16.10
2022-08-07T06:14:10.538Z,16.20
2022-08-07T06:16:08.007Z,16.20
2022-08-07T06:18:38.358Z,16.40
2022-08-07T06:22:16.833Z,16.40
2022-08-07T06:24:45.720Z,16.50
2022-08-07T06:26:43.300Z,16.60
2022-08-07T06:29:11.133Z,16.70
2022-08-07T06:31:49.639Z,16.80
2022-08-07T06:34:21.456Z,16.90
2022-08-07T06:36:51.949Z,17.00
2022-08-07T06:40:16.703Z,17.10
2022-08-07T06:42:34.874Z,17.20
2022-08-07T06:45:12.500Z,17.40
2022-08-07T06:47:59.013Z,17.40
2022-08-07T06:50:35.967Z,17.50
2022-08-07T06:53:04.790Z,17.60
2022-08-07T06:55:53.723Z,17.60
2022-08-07T06:58:32.214Z,17.70
2022-08-07T07:01:07.102Z,17.70
2022-08-07T07:03:47.951Z,17.80
2022-08-07T07:06:23.749Z,17.70
2022-08-07T07:08:51.100Z,17.70
2022-08-07T07:12:09.096Z,17.80
2022-08-07T07:14:04.807Z,17.90
2022-08-07T07:16:38.898Z,17.90
2022-08-07T07:19:56.513Z,17.90
2022-08-07T07:22:04.939Z,17.90
2022-08-07T07:24:39.846Z,17.90
2022-08-07T07:27:10.561Z,17.90
2022-08-07T07:30:07.540Z,17.90
2022-08-07T07:32:27.391Z,17.90
2022-08-07T07:34:56.332Z,18.00
2022-08-07T07:37:49.604Z,18.00
2022-08-07T07:40:15.688Z,18.00
2022-08-07T07:42:50.862Z,18.10
2022-08-07T07:45:19.439Z,18.10
2022-08-07T07:47:52.287Z,18.20
2022-08-07T07:50:36.038Z,18.20
2022-08-07T07:53:06.383Z,18.30
2022-08-07T07:55:57.533Z,18.30
2022-08-07T07:58:29.817Z,18.40
2022-08-07T08:00:57.637Z,18.50
2022-08-07T08:04:11.128Z,18.50
2022-08-07T08:06:13.096Z,18.60
2022-08-07T08:08:41.861Z,18.70
2022-08-07T08:11:16.100Z,18.70
2022-08-07T08:13:57.024Z,18.70
2022-08-07T08:16:35.275Z,18.80
2022-08-07T08:19:09.932Z,18.80
2022-08-07T08:22:08.188Z,18.90
2022-08-07T08:25:09.427Z,18.90
2022-08-07T08:27:56.551Z,18.90
2022-08-07T08:30:28.610Z,18.90
2022-08-07T08:33:03.737Z,19.00
2022-08-07T08:35:43.048Z,19.00
2022-08-07T08:38:18.114Z,19.10
2022-08-07T08:40:51.238Z,19.10
2022-08-07T08:43:42.031Z,19.10
2022-08-07T08:46:28.769Z,19.20
2022-08-07T08:49:14.869Z,19.30
2022-08-07T08:52:14.437Z,19.30
2022-08-07T08:55:21.103Z,19.40
2022-08-07T08:58:24.840Z,19.30
2022-08-07T09:01:19.222Z,19.40
2022-08-07T09:03:59.259Z,19.40
2022-08-07T09:06:29.654Z,19.50
2022-08-07T09:09:30.247Z,19.50
2022-08-07T09:12:30.800Z,19.60
2022-08-07T09:16:22.880Z,19.70
2022-08-07T09:18:35.003Z,19.70
2022-08-07T09:21:57.795Z,19.80
2022-08-07T09:24:33.304Z,19.90
2022-08-07T09:27:30.855Z,20.00
2022-08-07T09:30:08.017Z,20.00
2022-08-07T09:32:57.367Z,20.00
2022-08-07T09:36:03.025Z,20.00
2022-08-07T09:38:50.108Z,20.10
2022-08-07T09:42:02.994Z,20.10
2022-08-07T09:47:24.928Z,20.10
2022-08-07T09:48:11.677Z,20.10
2022-08-07T09:50:59.503Z,20.30
2022-08-07T09:53:26.699Z,20.50
2022-08-07T09:56:34.049Z,20.50
2022-08-07T09:59:21.940Z,20.50
2022-08-07T10:02:14.508Z,20.50
2022-08-07T10:04:55.021Z,20.50
2022-08-07T10:07:31.611Z,20.60
2022-08-07T10:10:23.246Z,20.70
2022-08-07T10:13:55.470Z,20.80
2022-08-07T10:16:32.186Z,20.90
2022-08-07T10:19:26.835Z,21.00
2022-08-07T10:22:24.994Z,21.00
2022-08-07T10:25:04.009Z,21.10
2022-08-07T10:28:03.064Z,21.20
2022-08-07T10:30:39.342Z,21.20
2022-08-07T10:34:06.569Z,21.20
2022-08-07T10:36:59.062Z,21.20
2022-08-07T10:39:41.910Z,21.40
2022-08-07T10:42:51.399Z,21.40
2022-08-07T10:45:58.129Z,21.30
2022-08-07T10:48:35.047Z,21.30
2022-08-07T10:51:57.423Z,21.40
2022-08-07T10:54:18.815Z,21.40
2022-08-07T10:57:22.275Z,21.40
2022-08-07T11:00:36.998Z,21.50
2022-08-07T11:03:11.298Z,21.60
2022-08-07T11:05:50.666Z,21.70
2022-08-07T11:08:18.441Z,21.80
2022-08-07T11:11:46.224Z,21.80
2022-08-07T11:15:00.288Z,21.80
2022-08-07T11:17:49.899Z,21.90
2022-08-07T11:20:36.172Z,21.80
2022-08-07T11:23:26.349Z,21.80
2022-08-07T11:26:23.282Z,22.00
2022-08-07T11:29:13.095Z,22.00
2022-08-07T11:31:58.344Z,22.10
2022-08-07T11:34:42.370Z,22.30
2022-08-07T11:37:38.159Z,22.30
2022-08-07T11:40:24.012Z,22.40
2022-08-07T11:43:06.200Z,22.40
2022-08-07T11:46:10.966Z,22.30
2022-08-07T11:49:51.392Z,22.30
2022-08-07T11:52:35.539Z,22.20
2022-08-07T11:56:09.383Z,22.20
2022-08-07T11:58:54.743Z,22.40
2022-08-07T12:01:58.708Z,22.40
2022-08-07T12:04:51.722Z,22.50
2022-08-07T12:07:38.582Z,22.80
2022-08-07T12:10:14.867Z,23.00
2022-08-07T12:13:11.503Z,23.00
2022-08-07T12:16:06.081Z,23.10
2022-08-07T12:19:10.628Z,23.20
2022-08-07T12:22:37.218Z,23.10
2022-08-07T12:26:02.761Z,23.10
2022-08-07T12:28:49.801Z,23.10
2022-08-07T12:31:52.706Z,23.10
2022-08-07T12:34:36.358Z,23.20
2022-08-07T12:37:08.775Z,23.20
2022-08-07T12:39:51.052Z,23.20
2022-08-07T12:42:27.571Z,23.20
2022-08-07T12:44:58.878Z,23.40
2022-08-07T12:47:39.717Z,23.60
2022-08-07T12:50:48.716Z,23.60
2022-08-07T12:53:21.863Z,23.70
2022-08-07T12:56:10.037Z,23.70
2022-08-07T12:58:40.303Z,23.80
2022-08-07T13:01:32.503Z,23.80
2022-08-07T13:04:34.098Z,24.00
2022-08-07T13:08:14.055Z,24.00
2022-08-07T13:10:39.391Z,24.00
2022-08-07T13:13:48.280Z,24.00
2022-08-07T13:16:55.167Z,23.90
2022-08-07T13:19:59.798Z,24.10
2022-08-07T13:22:31.022Z,24.00
2022-08-07T13:25:15.111Z,24.10
2022-08-07T13:28:12.757Z,24.10
2022-08-07T13:30:41.343Z,24.10
2022-08-07T13:34:32.696Z,24.20
2022-08-07T13:36:52.613Z,24.20
2022-08-07T13:40:36.430Z,24.20
2022-08-07T13:42:48.779Z,24.20
2022-08-07T13:46:06.821Z,24.30
2022-08-07T13:48:06.202Z,24.40
2022-08-07T13:51:00.291Z,24.40
2022-08-07T13:53:23.918Z,24.40
2022-08-07T13:55:54.629Z,24.60
2022-08-07T13:58:42.796Z,24.70
2022-08-07T14:01:25.042Z,24.80
2022-08-07T14:04:07.053Z,24.70
2022-08-07T14:06:37.159Z,24.80
2022-08-07T14:09:06.396Z,24.80
2022-08-07T14:11:53.849Z,24.80
2022-08-07T14:14:55.161Z,24.90
2022-08-07T14:18:13.193Z,25.00
2022-08-07T14:20:40.130Z,25.00
2022-08-07T14:23:08.572Z,24.90
2022-08-07T14:25:39.569Z,25.00
2022-08-07T14:28:14.969Z,24.90
2022-08-07T14:30:47.167Z,25.00
2022-08-07T14:33:22.242Z,25.10
2022-08-07T14:35:50.067Z,25.20
2022-08-07T14:38:31.397Z,25.10
2022-08-07T14:41:12.444Z,25.20
2022-08-07T14:43:57.987Z,25.20
2022-08-07T14:46:32.036Z,25.20
2022-08-07T14:49:17.417Z,25.40
2022-08-07T14:52:03.138Z,25.50
2022-08-07T14:57:21.111Z,25.50
2022-08-07T15:00:04.557Z,25.50
2022-08-07T15:02:34.537Z,25.40
2022-08-07T15:05:03.052Z,25.40
2022-08-07T15:07:47.327Z,25.40
2022-08-07T15:10:26.616Z,25.40
2022-08-07T15:13:11.570Z,25.40
2022-08-07T15:15:40.756Z,25.60
2022-08-07T15:18:34.069Z,25.60
2022-08-07T15:21:58.884Z,25.50
2022-08-07T15:25:15.069Z,25.60
2022-08-07T15:27:11.996Z,25.60
2022-08-07T15:30:04.603Z,25.60
2022-08-07T15:32:39.939Z,25.60
2022-08-07T15:36:00.528Z,25.60
2022-08-07T15:41:24.074Z,25.70
2022-08-07T15:44:10.707Z,25.70
2022-08-07T15:46:49.916Z,25.90
2022-08-07T15:49:25.278Z,25.80
2022-08-07T15:54:36.149Z,25.80
2022-08-07T15:57:28.347Z,25.90
2022-08-07T16:00:06.671Z,25.90
2022-08-07T16:02:46.554Z,26.00
2022-08-07T16:05:19.250Z,26.00
2022-08-07T16:08:31.123Z,26.10
2022-08-07T16:10:41.257Z,26.10
2022-08-07T16:13:58.098Z,26.30
2022-08-07T16:16:47.884Z,26.40
2022-08-07T16:19:16.937Z,26.40
2022-08-07T16:22:07.277Z,26.50
2022-08-07T16:24:52.862Z,26.40
2022-08-07T16:27:47.445Z,26.60
2022-08-07T16:30:30.817Z,26.80
2022-08-07T16:34:03.156Z,27.00
2022-08-07T16:36:31.344Z,27.00
2022-08-07T16:39:48.613Z,27.20
2022-08-07T16:42:41.602Z,27.30
2022-08-07T16:46:34.638Z,27.40
2022-08-07T16:48:53.763Z,27.60
2022-08-07T16:51:54.111Z,27.70
2022-08-07T16:54:32.543Z,27.90
2022-08-07T16:57:06.234Z,27.80
2022-08-07T17:00:10.950Z,27.90
2022-08-07T17:03:11.340Z,28.10
2022-08-07T17:06:19.159Z,28.20
2022-08-07T17:09:10.797Z,28.20
2022-08-07T17:12:03.921Z,28.20
2022-08-07T17:14:37.710Z,28.30
2022-08-07T17:17:09.836Z,28.40
2022-08-07T17:20:02.088Z,28.40
2022-08-07T17:22:37.918Z,28.50
2022-08-07T17:25:20.019Z,28.50
2022-08-07T17:28:12.414Z,28.60
2022-08-07T17:31:15.583Z,28.50
2022-08-07T17:34:15.256Z,28.60
2022-08-07T17:36:48.963Z,28.70
2022-08-07T17:39:53.014Z,29.00
2022-08-07T17:42:27.100Z,29.00
2022-08-07T17:44:57.231Z,29.10
2022-08-07T17:47:42.609Z,29.30
2022-08-07T17:50:30.335Z,29.40
2022-08-07T17:53:06.063Z,29.70
2022-08-07T17:56:01.360Z,29.80
2022-08-07T17:58:50.171Z,29.90
2022-08-07T18:01:40.911Z,30.00
2022-08-07T18:04:24.693Z,30.10
2022-08-07T18:07:24.704Z,30.20
2022-08-07T18:10:32.450Z,30.10
2022-08-07T18:13:20.607Z,30.10
2022-08-07T18:16:07.359Z,29.60
2022-08-07T18:21:01.390Z,29.30
2022-08-07T18:22:02.733Z,29.00
2022-08-07T18:24:37.954Z,28.70
2022-08-07T18:27:25.407Z,28.30
2022-08-07T18:30:32.977Z,28.00
2022-08-07T18:33:12.134Z,27.70
2022-08-07T18:35:51.875Z,27.50
2022-08-07T18:38:58.896Z,27.50
2022-08-07T18:41:46.013Z,27.30
2022-08-07T18:44:31.961Z,27.10
2022-08-07T18:47:22.459Z,26.90
2022-08-07T18:50:39.534Z,26.90
2022-08-07T18:53:36.996Z,26.70
2022-08-07T18:56:33.873Z,26.70
2022-08-07T18:59:46.823Z,26.50
2022-08-07T19:02:36.467Z,26.30
2022-08-07T19:06:02.202Z,26.10
2022-08-07T19:08:31.328Z,26.10
2022-08-07T19:11:02.535Z,26.00
2022-08-07T19:14:00.735Z,25.90
2022-08-07T19:17:04.718Z,25.80
2022-08-07T19:19:56.950Z,25.80
2022-08-07T19:22:47.168Z,25.70
2022-08-07T19:26:23.122Z,25.60
2022-08-07T19:28:56.736Z,25.60
2022-08-07T19:31:39.652Z,25.40
2022-08-07T19:33:46.727Z,25.40
2022-08-07T19:36:27.750Z,25.30
2022-08-07T19:38:57.175Z,25.20
2022-08-07T19:41:44.138Z,25.20
2022-08-07T19:44:21.459Z,25.10
2022-08-07T19:46:55.734Z,25.10
2022-08-07T19:49:57.097Z,25.00
2022-08-07T19:52:27.482Z,25.00
2022-08-07T19:54:58.251Z,25.00
2022-08-07T19:58:00.289Z,24.90
2022-08-07T20:00:29.719Z,24.80
2022-08-07T20:03:35.079Z,24.70
2022-08-07T20:06:04.539Z,24.70
2022-08-07T20:08:36.790Z,24.70
2022-08-07T20:11:09.611Z,24.60
2022-08-07T20:13:57.152Z,24.60
2022-08-07T20:16:35.189Z,24.50
2022-08-07T20:19:05.294Z,24.50
2022-08-07T20:21:46.762Z,24.40
2022-08-07T20:24:28.684Z,24.40
2022-08-07T20:26:57.611Z,24.30
2022-08-07T20:29:49.574Z,24.20
2022-08-07T20:32:25.262Z,24.10
2022-08-07T20:34:54.528Z,24.10
2022-08-07T20:37:33.738Z,24.10
2022-08-07T20:40:05.085Z,24.00
2022-08-07T20:42:56.272Z,24.00
2022-08-07T20:45:32.928Z,23.80
2022-08-07T20:48:11.499Z,23.70
2022-08-07T20:51:01.365Z,23.60
2022-08-07T20:54:02.348Z,23.50
2022-08-07T20:56:16.166Z,23.30
2022-08-07T20:58:44.383Z,23.30
2022-08-07T21:01:19.603Z,23.20
2022-08-07T21:04:18.628Z,23.20
2022-08-07T21:06:38.090Z,23.20
2022-08-07T21:09:14.029Z,23.10
2022-08-07T21:11:51.371Z,23.00
2022-08-07T21:14:32.719Z,23.00
2022-08-07T21:18:02.034Z,23.00
2022-08-07T21:20:04.824Z,22.90
2022-08-07T21:22:45.142Z,22.80
2022-08-07T21:25:42.596Z,22.70
2022-08-07T21:28:10.414Z,22.60
2022-08-07T21:31:15.133Z,22.50
2022-08-07T21:33:50.941Z,22.40
2022-08-07T21:36:32.111Z,22.30
2022-08-07T21:39:45.251Z,22.20
2022-08-07T21:42:46.630Z,22.20
2022-08-07T21:46:03.795Z,22.10
2022-08-07T21:48:42.660Z,22.00
2022-08-07T21:51:24.912Z,21.80
2022-08-07T21:53:54.123Z,21.50
2022-08-07T21:56:47.108Z,21.30
2022-08-07T22:00:05.207Z,21.20
2022-08-07T22:02:43.506Z,21.10
2022-08-07T22:05:22.137Z,21.10
2022-08-07T22:08:10.271Z,21.10
2022-08-07T22:10:37.672Z,21.10
2022-08-07T22:13:13.608Z,21.10
2022-08-07T22:16:44.838Z,21.10
2022-08-07T22:19:07.481Z,21.10
2022-08-07T22:22:27.591Z,21.00
2022-08-07T22:25:11.110Z,20.90
2022-08-07T22:28:20.129Z,20.80
2022-08-07T22:30:59.472Z,20.70
2022-08-07T22:33:52.766Z,20.60
2022-08-07T22:37:02.395Z,20.50
2022-08-07T22:39:53.024Z,20.40
2022-08-07T22:42:25.795Z,20.40
2022-08-07T22:44:58.749Z,20.30
2022-08-07T22:48:04.225Z,20.30
2022-08-07T22:51:04.404Z,20.30
2022-08-07T22:54:07.582Z,20.20
2022-08-07T22:57:07.260Z,20.20
2022-08-07T23:00:13.198Z,20.10
2022-08-07T23:02:48.302Z,20.00
2022-08-07T23:06:10.153Z,20.00
2022-08-07T23:08:54.540Z,20.00
2022-08-07T23:11:44.315Z,19.90
2022-08-07T23:14:40.333Z,19.90
2022-08-07T23:17:42.284Z,19.80
2022-08-07T23:20:51.202Z,19.70
2022-08-07T23:24:06.588Z,19.70
2022-08-07T23:27:12.946Z,19.70
2022-08-07T23:30:37.523Z,19.60
2022-08-07T23:34:33.303Z,19.60
2022-08-07T23:36:37.237Z,19.60
2022-08-07T23:39:09.835Z,19.50
2022-08-07T23:42:05.153Z,19.40
2022-08-07T23:45:03.358Z,19.40
2022-08-07T23:48:02.685Z,19.20
2022-08-07T23:50:54.441Z,19.20
2022-08-07T23:53:49.965Z,19.20
2022-08-07T23:56:53.467Z,19.10
